sensor_id;sensor_type;location;lat;lon;timestamp;pressure;altitude;pressure_sealevel;temperature;humidity
13029;BME280;6581;42.662;23.402;2023-05-12T00:00:46;95612.81;;;11.04;74.57
13029;BME280;6581;42.662;23.402;2023-05-12T00:03:13;95609.28;;;10.97;75.20
13029;BME280;6581;42.662;23.402;2023-05-12T00:06:07;95607.81;;;10.99;74.80
13029;BME280;6581;42.662;23.402;2023-05-12T00:08:34;95609.00;;;10.83;75.82
13029;BME280;6581;42.662;23.402;2023-05-12T00:11:01;95608.38;;;10.89;76.47
13029;BME280;6581;42.662;23.402;2023-05-12T00:13:28;95614.44;;;10.90;76.66
13029;BME280;6581;42.662;23.402;2023-05-12T00:15:55;95608.16;;;10.79;77.40
13029;BME280;6581;42.662;23.402;2023-05-12T00:18:23;95610.81;;;10.59;77.56
13029;BME280;6581;42.662;23.402;2023-05-12T00:21:17;95606.19;;;10.53;78.51
13029;BME280;6581;42.662;23.402;2023-05-12T00:23:44;95606.25;;;10.56;78.64
13029;BME280;6581;42.662;23.402;2023-05-12T00:26:11;95608.38;;;10.51;78.14
13029;BME280;6581;42.662;23.402;2023-05-12T00:28:39;95614.13;;;10.53;78.81
13029;BME280;6581;42.662;23.402;2023-05-12T00:31:06;95616.69;;;10.49;79.61
13029;BME280;6581;42.662;23.402;2023-05-12T00:33:33;95605.75;;;10.51;79.40
13029;BME280;6581;42.662;23.402;2023-05-12T00:36:00;95606.09;;;10.49;78.49
13029;BME280;6581;42.662;23.402;2023-05-12T00:38:30;95607.78;;;10.57;78.60
13029;BME280;6581;42.662;23.402;2023-05-12T00:40:58;95605.69;;;10.47;79.21
13029;BME280;6581;42.662;23.402;2023-05-12T00:43:25;95614.31;;;10.44;79.11
13029;BME280;6581;42.662;23.402;2023-05-12T00:45:52;95610.38;;;10.19;80.89
13029;BME280;6581;42.662;23.402;2023-05-12T00:48:19;95613.72;;;10.16;82.04
13029;BME280;6581;42.662;23.402;2023-05-12T00:50:47;95612.25;;;10.18;82.99
13029;BME280;6581;42.662;23.402;2023-05-12T00:53:14;95611.66;;;10.09;82.49
13029;BME280;6581;42.662;23.402;2023-05-12T00:55:43;95614.13;;;10.18;82.30
13029;BME280;6581;42.662;23.402;2023-05-12T00:58:10;95618.81;;;10.25;82.06
13029;BME280;6581;42.662;23.402;2023-05-12T01:00:37;95617.72;;;10.26;81.93
13029;BME280;6581;42.662;23.402;2023-05-12T01:03:04;95618.81;;;10.25;83.16
13029;BME280;6581;42.662;23.402;2023-05-12T01:05:36;95615.50;;;10.12;84.67
13029;BME280;6581;42.662;23.402;2023-05-12T01:08:05;95624.53;;;10.27;85.25
13029;BME280;6581;42.662;23.402;2023-05-12T01:10:33;95622.44;;;10.16;85.81
13029;BME280;6581;42.662;23.402;2023-05-12T01:13:02;95628.97;;;10.22;87.38
13029;BME280;6581;42.662;23.402;2023-05-12T01:15:31;95631.16;;;10.17;88.54
13029;BME280;6581;42.662;23.402;2023-05-12T01:18:00;95617.66;;;10.06;88.99
13029;BME280;6581;42.662;23.402;2023-05-12T01:20:29;95619.22;;;9.92;91.20
13029;BME280;6581;42.662;23.402;2023-05-12T01:22:58;95617.59;;;9.87;92.99
13029;BME280;6581;42.662;23.402;2023-05-12T01:25:30;95623.59;;;9.84;94.56
13029;BME280;6581;42.662;23.402;2023-05-12T01:28:01;95623.66;;;9.72;94.75
13029;BME280;6581;42.662;23.402;2023-05-12T01:30:30;95630.69;;;9.64;95.01
13029;BME280;6581;42.662;23.402;2023-05-12T01:32:58;95625.41;;;9.64;95.03
13029;BME280;6581;42.662;23.402;2023-05-12T01:35:25;95626.59;;;9.51;95.54
13029;BME280;6581;42.662;23.402;2023-05-12T01:38:00;95626.84;;;9.46;97.91
13029;BME280;6581;42.662;23.402;2023-05-12T01:40:26;95625.38;;;9.49;99.40
13029;BME280;6581;42.662;23.402;2023-05-12T01:42:55;95617.63;;;9.40;100.00
13029;BME280;6581;42.662;23.402;2023-05-12T01:45:26;95622.84;;;9.37;100.00
13029;BME280;6581;42.662;23.402;2023-05-12T01:47:53;95618.22;;;9.18;100.00
13029;BME280;6581;42.662;23.402;2023-05-12T01:50:20;95619.84;;;9.22;100.00
13029;BME280;6581;42.662;23.402;2023-05-12T01:52:48;95621.47;;;9.11;100.00
13029;BME280;6581;42.662;23.402;2023-05-12T01:55:17;95612.69;;;9.07;100.00
13029;BME280;6581;42.662;23.402;2023-05-12T01:57:56;95625.53;;;9.09;100.00
13029;BME280;6581;42.662;23.402;2023-05-12T02:00:50;95618.00;;;8.95;100.00
13029;BME280;6581;42.662;23.402;2023-05-12T02:03:18;95622.50;;;8.79;100.00
13029;BME280;6581;42.662;23.402;2023-05-12T02:05:45;95622.25;;;8.84;100.00
13029;BME280;6581;42.662;23.402;2023-05-12T02:08:12;95620.63;;;8.79;100.00
13029;BME280;6581;42.662;23.402;2023-05-12T02:10:39;95617.22;;;8.79;100.00
13029;BME280;6581;42.662;23.402;2023-05-12T02:13:06;95623.94;;;8.76;100.00
13029;BME280;6581;42.662;23.402;2023-05-12T02:15:34;95624.63;;;8.73;100.00
13029;BME280;6581;42.662;23.402;2023-05-12T02:18:02;95622.97;;;8.69;100.00
13029;BME280;6581;42.662;23.402;2023-05-12T02:20:30;95625.63;;;8.69;100.00
13029;BME280;6581;42.662;23.402;2023-05-12T02:22:57;95621.88;;;8.70;100.00
13029;BME280;6581;42.662;23.402;2023-05-12T02:25:24;95625.63;;;8.69;100.00
13029;BME280;6581;42.662;23.402;2023-05-12T02:27:51;95618.47;;;8.69;100.00
13029;BME280;6581;42.662;23.402;2023-05-12T02:30:18;95617.63;;;8.53;100.00
13029;BME280;6581;42.662;23.402;2023-05-12T02:32:45;95616.97;;;8.56;100.00
13029;BME280;6581;42.662;23.402;2023-05-12T02:35:14;95611.16;;;8.51;100.00
13029;BME280;6581;42.662;23.402;2023-05-12T02:37:41;95617.88;;;8.48;100.00
13029;BME280;6581;42.662;23.402;2023-05-12T02:40:33;95614.28;;;8.40;100.00
13029;BME280;6581;42.662;23.402;2023-05-12T02:43:00;95609.59;;;8.34;100.00
13029;BME280;6581;42.662;23.402;2023-05-12T02:45:27;95617.59;;;8.37;100.00
13029;BME280;6581;42.662;23.402;2023-05-12T02:47:54;95614.84;;;8.34;100.00
13029;BME280;6581;42.662;23.402;2023-05-12T02:50:23;95619.56;;;8.40;100.00
13029;BME280;6581;42.662;23.402;2023-05-12T02:52:50;95611.44;;;8.33;100.00
13029;BME280;6581;42.662;23.402;2023-05-12T02:55:17;95613.72;;;8.35;100.00
13029;BME280;6581;42.662;23.402;2023-05-12T02:57:44;95610.59;;;8.29;100.00
13029;BME280;6581;42.662;23.402;2023-05-12T03:00:12;95609.22;;;8.35;100.00
13029;BME280;6581;42.662;23.402;2023-05-12T03:02:40;95603.94;;;8.48;100.00
13029;BME280;6581;42.662;23.402;2023-05-12T03:05:07;95608.31;;;8.43;100.00
13029;BME280;6581;42.662;23.402;2023-05-12T03:07:37;95613.84;;;8.38;100.00
13029;BME280;6581;42.662;23.402;2023-05-12T03:10:29;95612.97;;;8.34;100.00
13029;BME280;6581;42.662;23.402;2023-05-12T03:12:57;95613.41;;;8.36;100.00
13029;BME280;6581;42.662;23.402;2023-05-12T03:15:24;95621.88;;;8.30;100.00
13029;BME280;6581;42.662;23.402;2023-05-12T03:17:51;95614.41;;;8.20;100.00
13029;BME280;6581;42.662;23.402;2023-05-12T03:20:18;95620.97;;;8.26;100.00
13029;BME280;6581;42.662;23.402;2023-05-12T03:22:47;95619.25;;;8.18;100.00
13029;BME280;6581;42.662;23.402;2023-05-12T03:25:14;95616.72;;;8.21;100.00
13029;BME280;6581;42.662;23.402;2023-05-12T03:27:41;95623.78;;;8.29;100.00
13029;BME280;6581;42.662;23.402;2023-05-12T03:30:09;95617.47;;;8.22;100.00
13029;BME280;6581;42.662;23.402;2023-05-12T03:32:36;95627.69;;;8.35;100.00
13029;BME280;6581;42.662;23.402;2023-05-12T03:35:06;95631.44;;;8.22;100.00
13029;BME280;6581;42.662;23.402;2023-05-12T03:37:33;95630.34;;;8.35;100.00
13029;BME280;6581;42.662;23.402;2023-05-12T03:40:04;95635.22;;;8.33;100.00
13029;BME280;6581;42.662;23.402;2023-05-12T03:42:31;95639.91;;;8.28;100.00
13029;BME280;6581;42.662;23.402;2023-05-12T03:44:58;95638.25;;;8.35;100.00
13029;BME280;6581;42.662;23.402;2023-05-12T03:47:50;95636.31;;;8.32;100.00
13029;BME280;6581;42.662;23.402;2023-05-12T03:50:17;95634.44;;;8.33;100.00
13029;BME280;6581;42.662;23.402;2023-05-12T03:52:44;95628.25;;;8.29;100.00
13029;BME280;6581;42.662;23.402;2023-05-12T03:55:13;95624.41;;;8.26;100.00
13029;BME280;6581;42.662;23.402;2023-05-12T03:57:41;95633.97;;;8.31;100.00
13029;BME280;6581;42.662;23.402;2023-05-12T04:00:10;95627.47;;;8.40;100.00
13029;BME280;6581;42.662;23.402;2023-05-12T04:02:44;95631.66;;;8.41;100.00
13029;BME280;6581;42.662;23.402;2023-05-12T04:05:13;95631.22;;;8.39;100.00
13029;BME280;6581;42.662;23.402;2023-05-12T04:07:41;95639.47;;;8.38;100.00
13029;BME280;6581;42.662;23.402;2023-05-12T04:10:08;95634.63;;;8.40;100.00
13029;BME280;6581;42.662;23.402;2023-05-12T04:12:37;95642.41;;;8.49;100.00
13029;BME280;6581;42.662;23.402;2023-05-12T04:15:05;95650.72;;;8.63;100.00
13029;BME280;6581;42.662;23.402;2023-05-12T04:17:32;95651.72;;;8.58;100.00
13029;BME280;6581;42.662;23.402;2023-05-12T04:20:00;95652.63;;;8.50;100.00
13029;BME280;6581;42.662;23.402;2023-05-12T04:22:27;95657.00;;;8.58;100.00
13029;BME280;6581;42.662;23.402;2023-05-12T04:24:55;95648.63;;;8.68;100.00
13029;BME280;6581;42.662;23.402;2023-05-12T04:27:23;95654.59;;;8.53;100.00
13029;BME280;6581;42.662;23.402;2023-05-12T04:29:51;95639.88;;;8.52;100.00
13029;BME280;6581;42.662;23.402;2023-05-12T04:32:19;95644.91;;;8.57;100.00
13029;BME280;6581;42.662;23.402;2023-05-12T04:34:47;95649.00;;;8.55;100.00
13029;BME280;6581;42.662;23.402;2023-05-12T04:37:14;95642.66;;;8.71;100.00
13029;BME280;6581;42.662;23.402;2023-05-12T04:39:41;95650.34;;;8.76;100.00
13029;BME280;6581;42.662;23.402;2023-05-12T04:42:09;95645.28;;;8.71;100.00
13029;BME280;6581;42.662;23.402;2023-05-12T04:44:36;95645.06;;;8.76;100.00
13029;BME280;6581;42.662;23.402;2023-05-12T04:47:06;95643.78;;;8.70;100.00
13029;BME280;6581;42.662;23.402;2023-05-12T04:49:33;95647.47;;;8.81;100.00
13029;BME280;6581;42.662;23.402;2023-05-12T04:52:00;95643.72;;;8.82;100.00
13029;BME280;6581;42.662;23.402;2023-05-12T04:54:27;95648.56;;;8.80;100.00
13029;BME280;6581;42.662;23.402;2023-05-12T04:56:55;95650.56;;;8.99;100.00
13029;BME280;6581;42.662;23.402;2023-05-12T04:59:22;95657.22;;;8.93;100.00
13029;BME280;6581;42.662;23.402;2023-05-12T05:01:51;95656.16;;;8.82;100.00
13029;BME280;6581;42.662;23.402;2023-05-12T05:04:20;95657.16;;;8.77;100.00
13029;BME280;6581;42.662;23.402;2023-05-12T05:06:48;95658.47;;;8.83;100.00
13029;BME280;6581;42.662;23.402;2023-05-12T05:09:15;95657.56;;;8.92;100.00
13029;BME280;6581;42.662;23.402;2023-05-12T05:11:42;95650.19;;;9.13;100.00
13029;BME280;6581;42.662;23.402;2023-05-12T05:14:10;95647.38;;;9.06;100.00
13029;BME280;6581;42.662;23.402;2023-05-12T05:16:37;95652.09;;;9.28;100.00
13029;BME280;6581;42.662;23.402;2023-05-12T05:19:30;95651.22;;;9.24;100.00
13029;BME280;6581;42.662;23.402;2023-05-12T05:21:57;95655.06;;;9.26;100.00
13029;BME280;6581;42.662;23.402;2023-05-12T05:24:24;95656.69;;;9.15;100.00
13029;BME280;6581;42.662;23.402;2023-05-12T05:26:52;95659.16;;;9.24;100.00
13029;BME280;6581;42.662;23.402;2023-05-12T05:29:19;95658.66;;;9.34;100.00
13029;BME280;6581;42.662;23.402;2023-05-12T05:31:47;95662.41;;;9.33;100.00
13029;BME280;6581;42.662;23.402;2023-05-12T05:34:14;95664.38;;;9.20;100.00
13029;BME280;6581;42.662;23.402;2023-05-12T05:36:43;95668.63;;;9.25;100.00
13029;BME280;6581;42.662;23.402;2023-05-12T05:39:10;95661.59;;;9.17;100.00
13029;BME280;6581;42.662;23.402;2023-05-12T05:41:37;95664.00;;;9.22;100.00
13029;BME280;6581;42.662;23.402;2023-05-12T05:44:05;95667.66;;;9.02;100.00
13029;BME280;6581;42.662;23.402;2023-05-12T05:46:32;95664.41;;;9.08;100.00
13029;BME280;6581;42.662;23.402;2023-05-12T05:48:59;95667.16;;;9.12;100.00
13029;BME280;6581;42.662;23.402;2023-05-12T05:51:28;95667.28;;;9.03;100.00
13029;BME280;6581;42.662;23.402;2023-05-12T05:53:57;95671.69;;;9.11;100.00
13029;BME280;6581;42.662;23.402;2023-05-12T05:56:24;95670.81;;;9.07;100.00
13029;BME280;6581;42.662;23.402;2023-05-12T05:58:52;95663.38;;;9.13;100.00
13029;BME280;6581;42.662;23.402;2023-05-12T06:01:19;95666.75;;;9.25;100.00
13029;BME280;6581;42.662;23.402;2023-05-12T06:03:46;95670.41;;;9.21;100.00
13029;BME280;6581;42.662;23.402;2023-05-12T06:06:14;95676.03;;;9.19;100.00
13029;BME280;6581;42.662;23.402;2023-05-12T06:08:42;95676.88;;;9.23;100.00
13029;BME280;6581;42.662;23.402;2023-05-12T06:11:11;95680.06;;;9.29;100.00
13029;BME280;6581;42.662;23.402;2023-05-12T06:13:38;95674.78;;;9.29;100.00
13029;BME280;6581;42.662;23.402;2023-05-12T06:16:05;95668.22;;;9.39;100.00
13029;BME280;6581;42.662;23.402;2023-05-12T06:18:33;95676.25;;;9.42;100.00
13029;BME280;6581;42.662;23.402;2023-05-12T06:21:02;95680.59;;;9.50;100.00
13029;BME280;6581;42.662;23.402;2023-05-12T06:23:29;95678.28;;;9.33;100.00
13029;BME280;6581;42.662;23.402;2023-05-12T06:25:57;95685.34;;;9.45;100.00
13029;BME280;6581;42.662;23.402;2023-05-12T06:28:27;95690.91;;;9.55;100.00
13029;BME280;6581;42.662;23.402;2023-05-12T06:30:54;95690.75;;;9.64;100.00
13029;BME280;6581;42.662;23.402;2023-05-12T06:33:21;95689.13;;;9.59;100.00
13029;BME280;6581;42.662;23.402;2023-05-12T06:35:49;95694.25;;;9.68;100.00
13029;BME280;6581;42.662;23.402;2023-05-12T06:38:16;95693.66;;;9.74;100.00
13029;BME280;6581;42.662;23.402;2023-05-12T06:40:43;95698.09;;;9.86;100.00
13029;BME280;6581;42.662;23.402;2023-05-12T06:43:10;95693.81;;;9.82;100.00
13029;BME280;6581;42.662;23.402;2023-05-12T06:45:45;95702.09;;;9.96;100.00
13029;BME280;6581;42.662;23.402;2023-05-12T06:48:12;95688.09;;;10.11;100.00
13029;BME280;6581;42.662;23.402;2023-05-12T06:51:29;95697.34;;;10.17;100.00
13029;BME280;6581;42.662;23.402;2023-05-12T06:53:57;95703.13;;;10.22;100.00
13029;BME280;6581;42.662;23.402;2023-05-12T06:56:24;95705.75;;;10.38;100.00
13029;BME280;6581;42.662;23.402;2023-05-12T06:58:51;95704.00;;;10.46;100.00
13029;BME280;6581;42.662;23.402;2023-05-12T07:01:20;95700.22;;;10.62;100.00
13029;BME280;6581;42.662;23.402;2023-05-12T07:03:47;95700.91;;;10.79;100.00
13029;BME280;6581;42.662;23.402;2023-05-12T07:06:14;95700.34;;;10.70;98.69
13029;BME280;6581;42.662;23.402;2023-05-12T07:08:41;95699.31;;;10.74;99.42
13029;BME280;6581;42.662;23.402;2023-05-12T07:11:08;95708.25;;;10.85;98.59
13029;BME280;6581;42.662;23.402;2023-05-12T07:13:35;95712.09;;;10.88;98.47
13029;BME280;6581;42.662;23.402;2023-05-12T07:16:03;95705.44;;;10.78;98.90
13029;BME280;6581;42.662;23.402;2023-05-12T07:18:32;95708.09;;;10.78;99.03
13029;BME280;6581;42.662;23.402;2023-05-12T07:20:59;95711.59;;;10.82;98.86
13029;BME280;6581;42.662;23.402;2023-05-12T07:23:26;95709.97;;;10.78;100.00
13029;BME280;6581;42.662;23.402;2023-05-12T07:25:54;95714.31;;;10.66;98.93
13029;BME280;6581;42.662;23.402;2023-05-12T07:28:22;95708.00;;;10.55;100.00
13029;BME280;6581;42.662;23.402;2023-05-12T07:30:49;95708.25;;;10.66;99.53
13029;BME280;6581;42.662;23.402;2023-05-12T07:33:16;95703.59;;;10.98;98.91
13029;BME280;6581;42.662;23.402;2023-05-12T07:35:46;95713.69;;;11.11;97.90
13029;BME280;6581;42.662;23.402;2023-05-12T07:38:13;95707.31;;;11.35;96.46
13029;BME280;6581;42.662;23.402;2023-05-12T07:40:40;95715.94;;;11.51;94.72
13029;BME280;6581;42.662;23.402;2023-05-12T07:43:08;95720.03;;;11.45;94.26
13029;BME280;6581;42.662;23.402;2023-05-12T07:45:35;95726.41;;;11.64;93.27
13029;BME280;6581;42.662;23.402;2023-05-12T07:48:02;95719.53;;;11.82;93.03
13029;BME280;6581;42.662;23.402;2023-05-12T07:50:29;95719.59;;;11.85;92.59
13029;BME280;6581;42.662;23.402;2023-05-12T07:52:58;95719.44;;;12.24;91.09
13029;BME280;6581;42.662;23.402;2023-05-12T07:55:25;95719.25;;;12.36;89.50
13029;BME280;6581;42.662;23.402;2023-05-12T07:57:52;95719.19;;;12.59;87.70
13029;BME280;6581;42.662;23.402;2023-05-12T08:00:19;95716.19;;;12.60;89.17
13029;BME280;6581;42.662;23.402;2023-05-12T08:02:46;95709.59;;;12.80;87.52
13029;BME280;6581;42.662;23.402;2023-05-12T08:05:13;95704.59;;;13.05;85.63
13029;BME280;6581;42.662;23.402;2023-05-12T08:07:40;95717.31;;;13.19;82.31
13029;BME280;6581;42.662;23.402;2023-05-12T08:10:10;95712.22;;;13.40;81.54
13029;BME280;6581;42.662;23.402;2023-05-12T08:12:39;95714.84;;;13.37;80.69
13029;BME280;6581;42.662;23.402;2023-05-12T08:15:06;95710.63;;;13.32;81.40
13029;BME280;6581;42.662;23.402;2023-05-12T08:17:35;95714.19;;;13.47;80.06
13029;BME280;6581;42.662;23.402;2023-05-12T08:20:03;95720.47;;;13.65;79.37
13029;BME280;6581;42.662;23.402;2023-05-12T08:22:31;95719.69;;;13.64;78.29
13029;BME280;6581;42.662;23.402;2023-05-12T08:24:58;95720.78;;;14.00;76.72
13029;BME280;6581;42.662;23.402;2023-05-12T08:27:26;95716.09;;;13.87;78.19
13029;BME280;6581;42.662;23.402;2023-05-12T08:29:54;95720.47;;;14.09;74.80
13029;BME280;6581;42.662;23.402;2023-05-12T08:32:21;95723.09;;;14.05;75.57
13029;BME280;6581;42.662;23.402;2023-05-12T08:34:47;95722.81;;;14.17;74.22
13029;BME280;6581;42.662;23.402;2023-05-12T08:37:15;95714.44;;;13.71;77.03
13029;BME280;6581;42.662;23.402;2023-05-12T08:39:42;95714.69;;;14.00;77.83
13029;BME280;6581;42.662;23.402;2023-05-12T08:42:17;95717.63;;;13.88;75.70
13029;BME280;6581;42.662;23.402;2023-05-12T08:44:50;95727.22;;;13.55;76.35
13029;BME280;6581;42.662;23.402;2023-05-12T08:47:19;95715.38;;;13.16;78.63
13029;BME280;6581;42.662;23.402;2023-05-12T08:49:50;95714.50;;;13.08;79.75
13029;BME280;6581;42.662;23.402;2023-05-12T08:52:23;95706.63;;;13.52;77.19
13029;BME280;6581;42.662;23.402;2023-05-12T08:54:50;95709.66;;;13.91;75.57
13029;BME280;6581;42.662;23.402;2023-05-12T08:57:19;95709.91;;;14.19;73.30
13029;BME280;6581;42.662;23.402;2023-05-12T08:59:46;95710.19;;;13.67;75.47
13029;BME280;6581;42.662;23.402;2023-05-12T09:02:16;95708.09;;;13.83;76.30
13029;BME280;6581;42.662;23.402;2023-05-12T09:04:44;95710.88;;;14.01;75.57
13029;BME280;6581;42.662;23.402;2023-05-12T09:07:41;95712.47;;;14.56;73.47
13029;BME280;6581;42.662;23.402;2023-05-12T09:10:13;95714.03;;;14.68;71.37
13029;BME280;6581;42.662;23.402;2023-05-12T09:12:41;95707.31;;;14.99;69.20
13029;BME280;6581;42.662;23.402;2023-05-12T09:15:10;95700.91;;;15.07;68.15
13029;BME280;6581;42.662;23.402;2023-05-12T09:17:41;95698.34;;;14.52;68.76
13029;BME280;6581;42.662;23.402;2023-05-12T09:20:09;95695.69;;;14.56;68.44
13029;BME280;6581;42.662;23.402;2023-05-12T09:22:37;95692.28;;;14.59;70.67
13029;BME280;6581;42.662;23.402;2023-05-12T09:25:14;95699.22;;;14.78;68.89
13029;BME280;6581;42.662;23.402;2023-05-12T09:27:41;95697.34;;;14.82;67.61
13029;BME280;6581;42.662;23.402;2023-05-12T09:30:10;95694.13;;;15.34;68.03
13029;BME280;6581;42.662;23.402;2023-05-12T09:32:37;95697.88;;;15.26;66.92
13029;BME280;6581;42.662;23.402;2023-05-12T09:35:07;95695.50;;;15.00;65.56
13029;BME280;6581;42.662;23.402;2023-05-12T09:38:05;95691.09;;;15.39;65.50
13029;BME280;6581;42.662;23.402;2023-05-12T09:40:32;95687.66;;;15.46;63.65
13029;BME280;6581;42.662;23.402;2023-05-12T09:42:59;95691.50;;;15.52;63.81
13029;BME280;6581;42.662;23.402;2023-05-12T09:45:26;95692.66;;;15.72;62.84
13029;BME280;6581;42.662;23.402;2023-05-12T09:47:53;95692.31;;;15.74;61.79
13029;BME280;6581;42.662;23.402;2023-05-12T09:50:22;95701.44;;;15.59;60.85
13029;BME280;6581;42.662;23.402;2023-05-12T09:52:49;95698.69;;;15.41;61.52
13029;BME280;6581;42.662;23.402;2023-05-12T09:55:17;95694.19;;;15.52;61.71
13029;BME280;6581;42.662;23.402;2023-05-12T09:57:44;95697.25;;;15.68;61.23
13029;BME280;6581;42.662;23.402;2023-05-12T10:00:13;95697.66;;;15.67;61.39
13029;BME280;6581;42.662;23.402;2023-05-12T10:02:42;95692.31;;;15.99;60.49
13029;BME280;6581;42.662;23.402;2023-05-12T10:05:13;95691.94;;;16.11;59.09
13029;BME280;6581;42.662;23.402;2023-05-12T10:07:43;95680.09;;;16.12;58.91
13029;BME280;6581;42.662;23.402;2023-05-12T10:10:14;95682.75;;;16.29;60.03
13029;BME280;6581;42.662;23.402;2023-05-12T10:12:44;95680.44;;;16.67;58.47
13029;BME280;6581;42.662;23.402;2023-05-12T10:15:36;95673.13;;;16.78;57.07
13029;BME280;6581;42.662;23.402;2023-05-12T10:18:03;95669.28;;;16.90;55.92
13029;BME280;6581;42.662;23.402;2023-05-12T10:20:30;95674.09;;;17.23;53.98
13029;BME280;6581;42.662;23.402;2023-05-12T10:23:01;95671.84;;;17.18;54.28
13029;BME280;6581;42.662;23.402;2023-05-12T10:25:54;95671.31;;;17.41;53.87
13029;BME280;6581;42.662;23.402;2023-05-12T10:28:23;95670.09;;;17.59;53.76
13029;BME280;6581;42.662;23.402;2023-05-12T10:30:50;95665.81;;;17.65;52.00
13029;BME280;6581;42.662;23.402;2023-05-12T10:33:19;95661.19;;;17.73;50.75
13029;BME280;6581;42.662;23.402;2023-05-12T10:35:47;95660.44;;;17.73;49.40
13029;BME280;6581;42.662;23.402;2023-05-12T10:38:16;95660.13;;;17.60;49.91
13029;BME280;6581;42.662;23.402;2023-05-12T10:40:51;95655.47;;;17.71;50.29
13029;BME280;6581;42.662;23.402;2023-05-12T10:43:22;95657.44;;;17.56;48.23
13029;BME280;6581;42.662;23.402;2023-05-12T10:46:05;95654.06;;;17.49;50.40
13029;BME280;6581;42.662;23.402;2023-05-12T10:48:33;95659.00;;;17.54;49.59
13029;BME280;6581;42.662;23.402;2023-05-12T10:51:06;95648.97;;;16.96;50.50
13029;BME280;6581;42.662;23.402;2023-05-12T10:53:59;95648.69;;;16.55;55.35
13029;BME280;6581;42.662;23.402;2023-05-12T10:56:29;95652.88;;;16.77;53.67
13029;BME280;6581;42.662;23.402;2023-05-12T10:59:10;95654.31;;;17.03;52.04
13029;BME280;6581;42.662;23.402;2023-05-12T11:01:39;95649.38;;;16.94;51.86
13029;BME280;6581;42.662;23.402;2023-05-12T11:04:11;95658.81;;;17.16;52.31
13029;BME280;6581;42.662;23.402;2023-05-12T11:06:38;95655.78;;;17.18;49.57
13029;BME280;6581;42.662;23.402;2023-05-12T11:09:07;95654.19;;;17.27;50.94
13029;BME280;6581;42.662;23.402;2023-05-12T11:11:35;95665.31;;;17.19;50.38
13029;BME280;6581;42.662;23.402;2023-05-12T11:14:03;95657.19;;;17.37;49.08
13029;BME280;6581;42.662;23.402;2023-05-12T11:16:30;95658.59;;;17.62;48.55
13029;BME280;6581;42.662;23.402;2023-05-12T11:19:01;95666.25;;;17.60;48.29
13029;BME280;6581;42.662;23.402;2023-05-12T11:21:29;95664.63;;;17.73;46.50
13029;BME280;6581;42.662;23.402;2023-05-12T11:23:57;95659.22;;;17.81;45.96
13029;BME280;6581;42.662;23.402;2023-05-12T11:26:26;95666.88;;;17.79;45.20
13029;BME280;6581;42.662;23.402;2023-05-12T11:28:54;95666.56;;;17.69;44.95
13029;BME280;6581;42.662;23.402;2023-05-12T11:31:22;95670.09;;;17.52;44.19
13029;BME280;6581;42.662;23.402;2023-05-12T11:33:49;95666.28;;;17.46;44.73
13029;BME280;6581;42.662;23.402;2023-05-12T11:36:16;95666.25;;;17.60;44.62
13029;BME280;6581;42.662;23.402;2023-05-12T11:38:49;95662.38;;;17.68;45.37
13029;BME280;6581;42.662;23.402;2023-05-12T11:41:22;95669.25;;;17.69;47.29
13029;BME280;6581;42.662;23.402;2023-05-12T11:43:53;95671.91;;;17.69;46.46
13029;BME280;6581;42.662;23.402;2023-05-12T11:46:24;95671.56;;;17.67;46.71
13029;BME280;6581;42.662;23.402;2023-05-12T11:48:56;95659.69;;;17.68;46.77
13029;BME280;6581;42.662;23.402;2023-05-12T11:51:24;95667.28;;;17.77;46.78
13029;BME280;6581;42.662;23.402;2023-05-12T11:53:52;95672.19;;;17.86;44.00
13029;BME280;6581;42.662;23.402;2023-05-12T11:56:22;95656.47;;;17.91;45.06
13029;BME280;6581;42.662;23.402;2023-05-12T11:58:54;95661.97;;;17.70;45.21
13029;BME280;6581;42.662;23.402;2023-05-12T12:01:22;95656.63;;;17.66;46.04
13029;BME280;6581;42.662;23.402;2023-05-12T12:03:50;95657.72;;;17.76;46.34
13029;BME280;6581;42.662;23.402;2023-05-12T12:06:18;95666.78;;;17.31;46.13
13029;BME280;6581;42.662;23.402;2023-05-12T12:08:50;95666.50;;;17.11;47.96
13029;BME280;6581;42.662;23.402;2023-05-12T12:11:17;95662.59;;;17.26;47.51
13029;BME280;6581;42.662;23.402;2023-05-12T12:13:48;95664.09;;;17.31;46.59
13029;BME280;6581;42.662;23.402;2023-05-12T12:16:18;95670.22;;;17.31;45.84
13029;BME280;6581;42.662;23.402;2023-05-12T12:18:46;95674.94;;;17.06;45.77
13029;BME280;6581;42.662;23.402;2023-05-12T12:21:13;95674.94;;;17.06;45.87
13029;BME280;6581;42.662;23.402;2023-05-12T12:23:40;95685.38;;;16.75;46.51
13029;BME280;6581;42.662;23.402;2023-05-12T12:26:07;95673.84;;;16.93;47.45
13029;BME280;6581;42.662;23.402;2023-05-12T12:28:35;95666.59;;;16.82;46.82
13029;BME280;6581;42.662;23.402;2023-05-12T12:31:03;95671.97;;;16.79;47.43
13029;BME280;6581;42.662;23.402;2023-05-12T12:33:31;95664.34;;;16.74;47.27
13029;BME280;6581;42.662;23.402;2023-05-12T12:35:59;95662.81;;;16.80;46.85
13029;BME280;6581;42.662;23.402;2023-05-12T12:38:26;95668.16;;;16.80;45.89
13029;BME280;6581;42.662;23.402;2023-05-12T12:40:53;95669.66;;;16.84;46.71
13029;BME280;6581;42.662;23.402;2023-05-12T12:43:20;95676.63;;;16.68;46.95
13029;BME280;6581;42.662;23.402;2023-05-12T12:45:47;95673.88;;;16.78;46.84
13029;BME280;6581;42.662;23.402;2023-05-12T12:48:14;95673.91;;;16.75;47.37
13029;BME280;6581;42.662;23.402;2023-05-12T12:50:44;95677.00;;;16.66;47.33
13029;BME280;6581;42.662;23.402;2023-05-12T12:53:11;95668.53;;;16.78;47.17
13029;BME280;6581;42.662;23.402;2023-05-12T12:55:38;95677.78;;;16.63;46.68
13029;BME280;6581;42.662;23.402;2023-05-12T12:58:05;95662.88;;;16.62;48.62
13029;BME280;6581;42.662;23.402;2023-05-12T13:00:33;95679.28;;;16.50;45.99
13029;BME280;6581;42.662;23.402;2023-05-12T13:03:00;95670.50;;;16.46;46.76
13029;BME280;6581;42.662;23.402;2023-05-12T13:05:27;95666.69;;;16.47;47.10
13029;BME280;6581;42.662;23.402;2023-05-12T13:07:56;95667.06;;;16.42;47.58
13029;BME280;6581;42.662;23.402;2023-05-12T13:10:23;95658.28;;;16.49;47.50